sensor_id;sensor_type;location;lat;lon;timestamp;P1;durP1;ratioP1;P2;durP2;ratioP2
15502;SDS011;7853;52.186;5.948;2022-12-07T00:03:01;4.81;;;2.56;;
15502;SDS011;7853;52.186;5.948;2022-12-07T00:03:01;4.47;;;2.55;;
15502;SDS011;7853;52.186;5.948;2022-12-07T00:03:01;4.05;;;2.27;;
15502;SDS011;7853;52.186;5.948;2022-12-07T00:03:47;4.04;;;2.40;;
15502;SDS011;7853;52.186;5.948;2022-12-07T00:04:39;4.10;;;2.47;;
15502;SDS011;7853;52.186;5.948;2022-12-07T00:05:36;3.79;;;2.48;;
15502;SDS011;7853;52.186;5.948;2022-12-07T00:06:35;3.92;;;2.53;;
15502;SDS011;7853;52.186;5.948;2022-12-07T00:07:33;3.82;;;2.65;;
15502;SDS011;7853;52.186;5.948;2022-12-07T00:08:33;4.32;;;2.77;;
15502;SDS011;7853;52.186;5.948;2022-12-07T00:09:33;3.22;;;2.35;;
15502;SDS011;7853;52.186;5.948;2022-12-07T00:10:33;2.88;;;2.13;;
15502;SDS011;7853;52.186;5.948;2022-12-07T00:11:33;3.34;;;1.91;;
15502;SDS011;7853;52.186;5.948;2022-12-07T00:12:33;3.04;;;2.21;;
15502;SDS011;7853;52.186;5.948;2022-12-07T00:13:33;4.41;;;2.36;;
15502;SDS011;7853;52.186;5.948;2022-12-07T00:14:33;4.62;;;2.66;;
15502;SDS011;7853;52.186;5.948;2022-12-07T00:15:33;4.95;;;2.48;;
15502;SDS011;7853;52.186;5.948;2022-12-07T00:16:33;3.93;;;2.37;;
15502;SDS011;7853;52.186;5.948;2022-12-07T00:17:33;3.95;;;2.20;;
15502;SDS011;7853;52.186;5.948;2022-12-07T00:18:33;4.26;;;2.30;;
15502;SDS011;7853;52.186;5.948;2022-12-07T00:19:33;4.71;;;2.43;;
15502;SDS011;7853;52.186;5.948;2022-12-07T00:20:33;4.45;;;2.49;;
15502;SDS011;7853;52.186;5.948;2022-12-07T00:21:34;4.54;;;2.33;;
15502;SDS011;7853;52.186;5.948;2022-12-07T00:22:33;4.02;;;2.08;;
15502;SDS011;7853;52.186;5.948;2022-12-07T00:23:33;3.54;;;2.37;;
15502;SDS011;7853;52.186;5.948;2022-12-07T00:24:33;3.35;;;2.30;;
15502;SDS011;7853;52.186;5.948;2022-12-07T00:25:34;4.89;;;2.87;;
15502;SDS011;7853;52.186;5.948;2022-12-07T00:26:34;4.17;;;2.57;;
15502;SDS011;7853;52.186;5.948;2022-12-07T00:27:33;3.71;;;2.36;;
15502;SDS011;7853;52.186;5.948;2022-12-07T00:28:34;3.60;;;2.21;;
15502;SDS011;7853;52.186;5.948;2022-12-07T00:29:34;3.72;;;2.27;;
15502;SDS011;7853;52.186;5.948;2022-12-07T00:30:34;2.74;;;2.07;;
15502;SDS011;7853;52.186;5.948;2022-12-07T00:31:35;2.94;;;2.16;;
15502;SDS011;7853;52.186;5.948;2022-12-07T00:32:34;3.24;;;2.25;;
15502;SDS011;7853;52.186;5.948;2022-12-07T00:33:34;3.83;;;2.08;;
15502;SDS011;7853;52.186;5.948;2022-12-07T00:34:34;3.58;;;2.13;;
15502;SDS011;7853;52.186;5.948;2022-12-07T00:35:34;3.31;;;2.12;;
15502;SDS011;7853;52.186;5.948;2022-12-07T00:36:34;2.94;;;2.04;;
15502;SDS011;7853;52.186;5.948;2022-12-07T00:37:34;3.79;;;2.14;;
15502;SDS011;7853;52.186;5.948;2022-12-07T00:38:35;2.33;;;1.80;;
15502;SDS011;7853;52.186;5.948;2022-12-07T00:39:34;3.19;;;2.21;;
15502;SDS011;7853;52.186;5.948;2022-12-07T00:40:34;3.45;;;1.99;;
15502;SDS011;7853;52.186;5.948;2022-12-07T00:41:34;3.04;;;2.05;;
15502;SDS011;7853;52.186;5.948;2022-12-07T00:42:34;3.13;;;2.09;;
15502;SDS011;7853;52.186;5.948;2022-12-07T00:43:34;3.34;;;2.31;;
15502;SDS011;7853;52.186;5.948;2022-12-07T00:44:34;3.11;;;2.34;;
15502;SDS011;7853;52.186;5.948;2022-12-07T00:45:34;2.90;;;1.89;;
15502;SDS011;7853;52.186;5.948;2022-12-07T00:46:34;3.25;;;2.10;;
15502;SDS011;7853;52.186;5.948;2022-12-07T00:47:34;3.46;;;2.10;;
15502;SDS011;7853;52.186;5.948;2022-12-07T00:48:34;3.76;;;2.25;;
15502;SDS011;7853;52.186;5.948;2022-12-07T00:49:34;2.95;;;2.40;;
15502;SDS011;7853;52.186;5.948;2022-12-07T00:50:34;3.59;;;2.33;;
15502;SDS011;7853;52.186;5.948;2022-12-07T00:51:34;2.93;;;2.08;;
15502;SDS011;7853;52.186;5.948;2022-12-07T00:52:34;4.22;;;1.99;;
15502;SDS011;7853;52.186;5.948;2022-12-07T00:53:34;3.59;;;2.17;;
15502;SDS011;7853;52.186;5.948;2022-12-07T00:54:34;3.03;;;2.05;;
15502;SDS011;7853;52.186;5.948;2022-12-07T00:55:34;3.06;;;2.15;;
15502;SDS011;7853;52.186;5.948;2022-12-07T00:56:34;3.77;;;2.23;;
15502;SDS011;7853;52.186;5.948;2022-12-07T00:57:35;3.13;;;2.19;;
15502;SDS011;7853;52.186;5.948;2022-12-07T00:58:34;3.70;;;2.24;;
15502;SDS011;7853;52.186;5.948;2022-12-07T00:59:34;4.58;;;2.27;;
15502;SDS011;7853;52.186;5.948;2022-12-07T01:00:35;3.64;;;2.17;;
15502;SDS011;7853;52.186;5.948;2022-12-07T01:01:35;3.98;;;2.23;;
15502;SDS011;7853;52.186;5.948;2022-12-07T01:02:34;4.44;;;2.34;;
15502;SDS011;7853;52.186;5.948;2022-12-07T01:03:34;3.19;;;2.21;;
15502;SDS011;7853;52.186;5.948;2022-12-07T01:04:34;2.77;;;2.16;;
15502;SDS011;7853;52.186;5.948;2022-12-07T01:05:35;3.15;;;2.07;;
15502;SDS011;7853;52.186;5.948;2022-12-07T01:06:34;3.57;;;2.03;;
15502;SDS011;7853;52.186;5.948;2022-12-07T01:07:34;3.81;;;2.31;;
15502;SDS011;7853;52.186;5.948;2022-12-07T01:08:34;4.02;;;2.33;;
15502;SDS011;7853;52.186;5.948;2022-12-07T01:09:34;4.11;;;2.36;;
15502;SDS011;7853;52.186;5.948;2022-12-07T01:10:34;4.07;;;2.28;;
15502;SDS011;7853;52.186;5.948;2022-12-07T01:11:35;3.98;;;2.14;;
15502;SDS011;7853;52.186;5.948;2022-12-07T01:12:34;3.17;;;2.10;;
15502;SDS011;7853;52.186;5.948;2022-12-07T01:13:35;3.77;;;2.12;;
15502;SDS011;7853;52.186;5.948;2022-12-07T01:14:34;3.69;;;1.98;;
15502;SDS011;7853;52.186;5.948;2022-12-07T01:15:38;3.83;;;2.29;;
15502;SDS011;7853;52.186;5.948;2022-12-07T01:16:34;3.97;;;2.19;;
15502;SDS011;7853;52.186;5.948;2022-12-07T01:17:35;4.41;;;2.07;;
15502;SDS011;7853;52.186;5.948;2022-12-07T01:18:35;4.20;;;2.29;;
15502;SDS011;7853;52.186;5.948;2022-12-07T01:19:34;4.49;;;2.49;;
15502;SDS011;7853;52.186;5.948;2022-12-07T01:20:35;3.66;;;2.40;;
15502;SDS011;7853;52.186;5.948;2022-12-07T01:21:35;3.60;;;2.28;;
15502;SDS011;7853;52.186;5.948;2022-12-07T01:22:36;3.89;;;2.25;;
15502;SDS011;7853;52.186;5.948;2022-12-07T01:23:35;3.66;;;2.31;;
15502;SDS011;7853;52.186;5.948;2022-12-07T01:24:34;4.26;;;2.20;;
15502;SDS011;7853;52.186;5.948;2022-12-07T01:25:34;3.64;;;1.89;;
15502;SDS011;7853;52.186;5.948;2022-12-07T01:26:35;4.73;;;2.40;;
15502;SDS011;7853;52.186;5.948;2022-12-07T01:27:35;3.41;;;2.09;;
15502;SDS011;7853;52.186;5.948;2022-12-07T01:28:35;3.42;;;2.03;;
15502;SDS011;7853;52.186;5.948;2022-12-07T01:29:35;3.32;;;1.89;;
15502;SDS011;7853;52.186;5.948;2022-12-07T01:30:35;2.58;;;1.99;;
15502;SDS011;7853;52.186;5.948;2022-12-07T01:31:35;3.63;;;2.12;;
15502;SDS011;7853;52.186;5.948;2022-12-07T01:32:34;3.80;;;1.83;;
15502;SDS011;7853;52.186;5.948;2022-12-07T01:33:36;4.50;;;2.17;;
15502;SDS011;7853;52.186;5.948;2022-12-07T01:34:35;3.93;;;2.16;;
15502;SDS011;7853;52.186;5.948;2022-12-07T01:35:34;3.60;;;2.22;;
15502;SDS011;7853;52.186;5.948;2022-12-07T01:36:35;4.64;;;2.06;;
15502;SDS011;7853;52.186;5.948;2022-12-07T01:37:35;4.56;;;2.02;;
15502;SDS011;7853;52.186;5.948;2022-12-07T01:38:34;5.03;;;2.48;;
15502;SDS011;7853;52.186;5.948;2022-12-07T01:39:34;3.14;;;2.11;;
15502;SDS011;7853;52.186;5.948;2022-12-07T01:40:35;3.39;;;1.83;;
15502;SDS011;7853;52.186;5.948;2022-12-07T01:41:36;2.73;;;1.76;;
15502;SDS011;7853;52.186;5.948;2022-12-07T01:42:34;3.42;;;2.01;;
15502;SDS011;7853;52.186;5.948;2022-12-07T01:43:35;3.37;;;2.08;;
15502;SDS011;7853;52.186;5.948;2022-12-07T01:45:14;3.44;;;2.42;;
15502;SDS011;7853;52.186;5.948;2022-12-07T01:45:48;3.36;;;2.13;;
15502;SDS011;7853;52.186;5.948;2022-12-07T01:46:42;3.06;;;2.02;;
15502;SDS011;7853;52.186;5.948;2022-12-07T01:47:37;3.95;;;2.15;;
15502;SDS011;7853;52.186;5.948;2022-12-07T01:48:37;3.49;;;2.07;;
15502;SDS011;7853;52.186;5.948;2022-12-07T01:49:35;3.76;;;2.18;;
15502;SDS011;7853;52.186;5.948;2022-12-07T01:50:34;3.33;;;2.21;;
15502;SDS011;7853;52.186;5.948;2022-12-07T01:51:34;4.24;;;2.19;;
15502;SDS011;7853;52.186;5.948;2022-12-07T01:52:34;3.44;;;2.20;;
15502;SDS011;7853;52.186;5.948;2022-12-07T01:53:34;2.69;;;1.98;;
15502;SDS011;7853;52.186;5.948;2022-12-07T01:54:34;3.12;;;1.98;;
15502;SDS011;7853;52.186;5.948;2022-12-07T01:55:34;5.08;;;2.23;;
15502;SDS011;7853;52.186;5.948;2022-12-07T01:56:34;4.01;;;2.18;;
15502;SDS011;7853;52.186;5.948;2022-12-07T01:57:35;3.85;;;2.01;;
15502;SDS011;7853;52.186;5.948;2022-12-07T01:58:34;3.32;;;2.21;;
15502;SDS011;7853;52.186;5.948;2022-12-07T01:59:34;4.29;;;2.32;;
15502;SDS011;7853;52.186;5.948;2022-12-07T02:00:34;3.81;;;2.18;;
15502;SDS011;7853;52.186;5.948;2022-12-07T02:01:34;3.68;;;2.05;;
15502;SDS011;7853;52.186;5.948;2022-12-07T02:02:35;5.56;;;2.36;;
15502;SDS011;7853;52.186;5.948;2022-12-07T02:03:36;3.37;;;2.13;;
15502;SDS011;7853;52.186;5.948;2022-12-07T02:04:34;3.74;;;2.06;;
15502;SDS011;7853;52.186;5.948;2022-12-07T02:05:35;3.85;;;2.18;;
15502;SDS011;7853;52.186;5.948;2022-12-07T02:06:34;3.62;;;2.17;;
15502;SDS011;7853;52.186;5.948;2022-12-07T02:07:34;2.88;;;1.98;;
15502;SDS011;7853;52.186;5.948;2022-12-07T02:08:34;3.55;;;2.15;;
15502;SDS011;7853;52.186;5.948;2022-12-07T02:09:34;3.12;;;2.05;;
15502;SDS011;7853;52.186;5.948;2022-12-07T02:10:34;3.46;;;2.10;;
15502;SDS011;7853;52.186;5.948;2022-12-07T02:11:34;4.12;;;2.11;;
15502;SDS011;7853;52.186;5.948;2022-12-07T02:12:34;4.05;;;2.19;;
15502;SDS011;7853;52.186;5.948;2022-12-07T02:13:35;3.45;;;2.09;;
15502;SDS011;7853;52.186;5.948;2022-12-07T02:14:34;3.33;;;2.24;;
15502;SDS011;7853;52.186;5.948;2022-12-07T02:15:38;4.57;;;2.21;;
15502;SDS011;7853;52.186;5.948;2022-12-07T02:16:36;3.40;;;2.00;;
15502;SDS011;7853;52.186;5.948;2022-12-07T02:17:36;3.37;;;2.05;;
15502;SDS011;7853;52.186;5.948;2022-12-07T02:18:38;3.00;;;2.47;;
15502;SDS011;7853;52.186;5.948;2022-12-07T02:19:44;3.43;;;2.22;;
15502;SDS011;7853;52.186;5.948;2022-12-07T02:20:48;3.94;;;2.57;;
15502;SDS011;7853;52.186;5.948;2022-12-07T02:21:42;3.11;;;2.19;;
15502;SDS011;7853;52.186;5.948;2022-12-07T02:22:45;3.65;;;2.23;;
15502;SDS011;7853;52.186;5.948;2022-12-07T02:23:48;3.33;;;2.25;;
15502;SDS011;7853;52.186;5.948;2022-12-07T02:24:48;5.12;;;2.69;;
15502;SDS011;7853;52.186;5.948;2022-12-07T02:25:46;5.58;;;2.72;;
15502;SDS011;7853;52.186;5.948;2022-12-07T02:26:59;3.91;;;2.19;;
15502;SDS011;7853;52.186;5.948;2022-12-07T02:27:45;3.17;;;2.15;;
15502;SDS011;7853;52.186;5.948;2022-12-07T02:28:44;3.37;;;2.37;;
15502;SDS011;7853;52.186;5.948;2022-12-07T02:29:35;3.83;;;2.22;;
15502;SDS011;7853;52.186;5.948;2022-12-07T02:30:33;3.59;;;2.03;;
15502;SDS011;7853;52.186;5.948;2022-12-07T02:31:32;3.83;;;2.19;;
15502;SDS011;7853;52.186;5.948;2022-12-07T02:32:36;3.28;;;2.18;;
15502;SDS011;7853;52.186;5.948;2022-12-07T02:33:33;3.92;;;2.43;;
15502;SDS011;7853;52.186;5.948;2022-12-07T02:34:34;3.79;;;2.55;;
15502;SDS011;7853;52.186;5.948;2022-12-07T02:35:32;4.36;;;2.56;;
15502;SDS011;7853;52.186;5.948;2022-12-07T02:36:32;4.03;;;2.16;;
15502;SDS011;7853;52.186;5.948;2022-12-07T02:37:34;3.88;;;2.24;;
15502;SDS011;7853;52.186;5.948;2022-12-07T02:38:34;4.01;;;2.20;;
15502;SDS011;7853;52.186;5.948;2022-12-07T02:39:34;3.51;;;2.17;;
15502;SDS011;7853;52.186;5.948;2022-12-07T02:40:33;4.37;;;2.30;;
15502;SDS011;7853;52.186;5.948;2022-12-07T02:41:33;3.66;;;2.23;;
15502;SDS011;7853;52.186;5.948;2022-12-07T02:42:34;3.56;;;2.23;;
15502;SDS011;7853;52.186;5.948;2022-12-07T02:43:34;2.64;;;2.09;;
15502;SDS011;7853;52.186;5.948;2022-12-07T02:44:33;4.03;;;2.26;;
15502;SDS011;7853;52.186;5.948;2022-12-07T02:45:33;4.72;;;2.27;;
15502;SDS011;7853;52.186;5.948;2022-12-07T02:46:33;3.64;;;2.15;;
15502;SDS011;7853;52.186;5.948;2022-12-07T02:47:33;4.40;;;2.17;;
15502;SDS011;7853;52.186;5.948;2022-12-07T02:48:33;3.59;;;2.11;;
15502;SDS011;7853;52.186;5.948;2022-12-07T02:49:33;3.18;;;2.13;;
15502;SDS011;7853;52.186;5.948;2022-12-07T02:50:33;2.94;;;1.97;;
15502;SDS011;7853;52.186;5.948;2022-12-07T02:51:33;4.77;;;2.24;;
15502;SDS011;7853;52.186;5.948;2022-12-07T02:52:33;3.31;;;2.24;;
15502;SDS011;7853;52.186;5.948;2022-12-07T02:53:34;2.80;;;1.91;;
15502;SDS011;7853;52.186;5.948;2022-12-07T02:54:33;3.52;;;1.98;;
15502;SDS011;7853;52.186;5.948;2022-12-07T02:55:34;3.70;;;2.15;;
15502;SDS011;7853;52.186;5.948;2022-12-07T02:56:35;3.13;;;1.95;;
15502;SDS011;7853;52.186;5.948;2022-12-07T02:57:38;2.90;;;1.82;;
15502;SDS011;7853;52.186;5.948;2022-12-07T02:58:37;3.08;;;1.73;;
15502;SDS011;7853;52.186;5.948;2022-12-07T02:59:36;4.52;;;1.95;;
15502;SDS011;7853;52.186;5.948;2022-12-07T03:00:35;4.08;;;2.04;;
15502;SDS011;7853;52.186;5.948;2022-12-07T03:01:35;4.02;;;2.10;;
15502;SDS011;7853;52.186;5.948;2022-12-07T03:02:37;3.18;;;2.16;;
15502;SDS011;7853;52.186;5.948;2022-12-07T03:03:34;3.99;;;2.08;;
15502;SDS011;7853;52.186;5.948;2022-12-07T03:04:37;4.15;;;2.20;;
15502;SDS011;7853;52.186;5.948;2022-12-07T03:05:38;3.35;;;2.07;;
15502;SDS011;7853;52.186;5.948;2022-12-07T03:06:35;4.64;;;2.20;;
15502;SDS011;7853;52.186;5.948;2022-12-07T03:07:36;3.50;;;1.82;;
15502;SDS011;7853;52.186;5.948;2022-12-07T03:08:37;3.75;;;1.94;;
15502;SDS011;7853;52.186;5.948;2022-12-07T03:09:36;4.21;;;1.84;;
15502;SDS011;7853;52.186;5.948;2022-12-07T03:10:35;3.47;;;1.84;;
15502;SDS011;7853;52.186;5.948;2022-12-07T03:11:47;3.38;;;1.84;;
15502;SDS011;7853;52.186;5.948;2022-12-07T03:12:49;3.90;;;1.87;;
15502;SDS011;7853;52.186;5.948;2022-12-07T03:13:41;3.67;;;1.80;;
15502;SDS011;7853;52.186;5.948;2022-12-07T03:14:38;4.25;;;2.18;;
15502;SDS011;7853;52.186;5.948;2022-12-07T03:15:35;3.48;;;2.00;;
15502;SDS011;7853;52.186;5.948;2022-12-07T03:16:35;3.19;;;2.03;;
15502;SDS011;7853;52.186;5.948;2022-12-07T03:17:35;3.95;;;2.19;;
15502;SDS011;7853;52.186;5.948;2022-12-07T03:18:35;3.49;;;1.94;;
15502;SDS011;7853;52.186;5.948;2022-12-07T03:19:34;3.54;;;1.95;;
15502;SDS011;7853;52.186;5.948;2022-12-07T03:20:33;5.08;;;1.91;;
15502;SDS011;7853;52.186;5.948;2022-12-07T03:21:39;4.59;;;1.88;;
15502;SDS011;7853;52.186;5.948;2022-12-07T03:22:34;5.36;;;1.88;;
15502;SDS011;7853;52.186;5.948;2022-12-07T03:23:34;3.47;;;1.91;;
15502;SDS011;7853;52.186;5.948;2022-12-07T03:24:35;2.94;;;1.98;;
15502;SDS011;7853;52.186;5.948;2022-12-07T03:25:34;3.51;;;1.78;;
15502;SDS011;7853;52.186;5.948;2022-12-07T03:26:34;3.68;;;1.89;;
15502;SDS011;7853;52.186;5.948;2022-12-07T03:27:35;3.58;;;2.07;;
15502;SDS011;7853;52.186;5.948;2022-12-07T03:28:35;3.77;;;1.87;;
15502;SDS011;7853;52.186;5.948;2022-12-07T03:29:34;3.54;;;1.98;;
15502;SDS011;7853;52.186;5.948;2022-12-07T03:30:35;3.96;;;1.79;;
15502;SDS011;7853;52.186;5.948;2022-12-07T03:31:35;4.13;;;2.16;;
15502;SDS011;7853;52.186;5.948;2022-12-07T03:32:35;4.41;;;2.00;;
15502;SDS011;7853;52.186;5.948;2022-12-07T03:33:36;3.26;;;1.96;;
15502;SDS011;7853;52.186;5.948;2022-12-07T03:34:35;3.42;;;2.06;;
15502;SDS011;7853;52.186;5.948;2022-12-07T03:35:34;4.42;;;1.78;;
15502;SDS011;7853;52.186;5.948;2022-12-07T03:36:35;2.82;;;1.87;;
15502;SDS011;7853;52.186;5.948;2022-12-07T03:37:36;3.21;;;1.80;;
15502;SDS011;7853;52.186;5.948;2022-12-07T03:38:36;3.65;;;1.78;;
15502;SDS011;7853;52.186;5.948;2022-12-07T03:39:36;3.18;;;1.86;;
15502;SDS011;7853;52.186;5.948;2022-12-07T03:40:35;4.41;;;2.02;;
15502;SDS011;7853;52.186;5.948;2022-12-07T03:41:34;3.90;;;1.73;;
15502;SDS011;7853;52.186;5.948;2022-12-07T03:42:34;3.80;;;1.75;;
15502;SDS011;7853;52.186;5.948;2022-12-07T03:43:34;4.07;;;1.92;;
15502;SDS011;7853;52.186;5.948;2022-12-07T03:44:34;3.68;;;1.91;;
15502;SDS011;7853;52.186;5.948;2022-12-07T03:45:37;4.35;;;1.86;;
15502;SDS011;7853;52.186;5.948;2022-12-07T03:46:36;3.28;;;1.87;;
15502;SDS011;7853;52.186;5.948;2022-12-07T03:47:34;3.56;;;2.01;;
15502;SDS011;7853;52.186;5.948;2022-12-07T03:48:35;3.37;;;1.81;;
15502;SDS011;7853;52.186;5.948;2022-12-07T03:49:37;3.87;;;2.00;;
15502;SDS011;7853;52.186;5.948;2022-12-07T03:50:36;4.20;;;2.09;;
15502;SDS011;7853;52.186;5.948;2022-12-07T03:51:37;3.93;;;1.92;;
15502;SDS011;7853;52.186;5.948;2022-12-07T03:52:36;3.54;;;2.00;;
15502;SDS011;7853;52.186;5.948;2022-12-07T03:53:36;2.95;;;1.93;;
15502;SDS011;7853;52.186;5.948;2022-12-07T03:54:36;4.66;;;2.24;;
15502;SDS011;7853;52.186;5.948;2022-12-07T03:55:35;3.61;;;1.87;;
15502;SDS011;7853;52.186;5.948;2022-12-07T03:56:35;4.78;;;1.96;;
15502;SDS011;7853;52.186;5.948;2022-12-07T03:57:35;3.92;;;1.80;;
15502;SDS011;7853;52.186;5.948;2022-12-07T03:58:34;3.23;;;1.67;;
15502;SDS011;7853;52.186;5.948;2022-12-07T03:59:34;3.35;;;1.72;;
15502;SDS011;7853;52.186;5.948;2022-12-07T04:00:34;2.71;;;1.62;;
15502;SDS011;7853;52.186;5.948;2022-12-07T04:01:34;2.90;;;1.79;;
15502;SDS011;7853;52.186;5.948;2022-12-07T04:02:34;2.28;;;1.56;;
15502;SDS011;7853;52.186;5.948;2022-12-07T04:03:35;3.47;;;1.74;;
15502;SDS011;7853;52.186;5.948;2022-12-07T04:04:35;3.13;;;1.74;;
15502;SDS011;7853;52.186;5.948;2022-12-07T04:05:35;3.36;;;1.86;;
15502;SDS011;7853;52.186;5.948;2022-12-07T04:06:34;3.06;;;1.73;;
15502;SDS011;7853;52.186;5.948;2022-12-07T04:07:35;2.73;;;1.67;;
15502;SDS011;7853;52.186;5.948;2022-12-07T04:08:34;2.78;;;1.60;;
15502;SDS011;7853;52.186;5.948;2022-12-07T04:09:34;3.76;;;1.63;;
15502;SDS011;7853;52.186;5.948;2022-12-07T04:10:34;2.94;;;1.53;;
15502;SDS011;7853;52.186;5.948;2022-12-07T04:11:35;3.16;;;1.52;;
15502;SDS011;7853;52.186;5.948;2022-12-07T04:12:35;3.39;;;1.57;;
15502;SDS011;7853;52.186;5.948;2022-12-07T04:13:35;3.97;;;1.61;;
15502;SDS011;7853;52.186;5.948;2022-12-07T04:14:34;3.22;;;1.62;;
15502;SDS011;7853;52.186;5.948;2022-12-07T04:15:34;5.31;;;1.69;;
15502;SDS011;7853;52.186;5.948;2022-12-07T04:16:34;4.27;;;1.66;;
15502;SDS011;7853;52.186;5.948;2022-12-07T04:17:34;5.48;;;1.70;;
15502;SDS011;7853;52.186;5.948;2022-12-07T04:18:34;2.93;;;1.46;;
15502;SDS011;7853;52.186;5.948;2022-12-07T04:19:34;2.66;;;1.48;;
15502;SDS011;7853;52.186;5.948;2022-12-07T04:20:35;3.03;;;1.32;;
15502;SDS011;7853;52.186;5.948;2022-12-07T04:21:34;3.61;;;1.73;;
15502;SDS011;7853;52.186;5.948;2022-12-07T04:22:34;2.49;;;1.47;;
15502;SDS011;7853;52.186;5.948;2022-12-07T04:23:34;2.53;;;1.45;;
15502;SDS011;7853;52.186;5.948;2022-12-07T04:24:34;4.05;;;1.64;;
15502;SDS011;7853;52.186;5.948;2022-12-07T04:25:34;3.17;;;1.42;;
15502;SDS011;7853;52.186;5.948;2022-12-07T04:26:35;2.99;;;1.59;;
15502;SDS011;7853;52.186;5.948;2022-12-07T04:27:34;4.01;;;1.61;;
15502;SDS011;7853;52.186;5.948;2022-12-07T04:28:34;3.00;;;1.46;;
15502;SDS011;7853;52.186;5.948;2022-12-07T04:29:34;3.12;;;1.52;;
15502;SDS011;7853;52.186;5.948;2022-12-07T04:30:34;4.45;;;1.56;;
15502;SDS011;7853;52.186;5.948;2022-12-07T04:31:35;3.41;;;1.73;;
15502;SDS011;7853;52.186;5.948;2022-12-07T04:32:34;4.23;;;1.88;;
15502;SDS011;7853;52.186;5.948;2022-12-07T04:33:35;4.76;;;1.81;;
15502;SDS011;7853;52.186;5.948;2022-12-07T04:34:35;3.80;;;1.73;;
15502;SDS011;7853;52.186;5.948;2022-12-07T04:35:34;3.10;;;1.67;;
15502;SDS011;7853;52.186;5.948;2022-12-07T04:36:35;4.27;;;1.85;;
15502;SDS011;7853;52.186;5.948;2022-12-07T04:37:34;3.99;;;1.85;;
15502;SDS011;7853;52.186;5.948;2022-12-07T04:38:35;3.94;;;1.90;;
15502;SDS011;7853;52.186;5.948;2022-12-07T04:39:35;3.19;;;1.69;;
15502;SDS011;7853;52.186;5.948;2022-12-07T04:40:35;5.04;;;2.01;;
15502;SDS011;7853;52.186;5.948;2022-12-07T04:41:35;5.41;;;1.96;;
15502;SDS011;7853;52.186;5.948;2022-12-07T04:42:34;4.09;;;1.70;;
15502;SDS011;7853;52.186;5.948;2022-12-07T04:43:35;3.29;;;1.78;;
15502;SDS011;7853;52.186;5.948;2022-12-07T04:44:35;3.85;;;1.85;;
15502;SDS011;7853;52.186;5.948;2022-12-07T04:45:34;3.28;;;1.37;;
15502;SDS011;7853;52.186;5.948;2022-12-07T04:46:35;3.28;;;1.53;;
15502;SDS011;7853;52.186;5.948;2022-12-07T04:47:35;3.95;;;1.65;;
15502;SDS011;7853;52.186;5.948;2022-12-07T04:48:35;3.48;;;1.57;;
15502;SDS011;7853;52.186;5.948;2022-12-07T04:49:35;4.52;;;1.76;;
15502;SDS011;7853;52.186;5.948;2022-12-07T04:50:35;4.44;;;1.91;;
15502;SDS011;7853;52.186;5.948;2022-12-07T04:51:35;4.06;;;1.59;;
15502;SDS011;7853;52.186;5.948;2022-12-07T04:52:34;3.54;;;1.55;;
15502;SDS011;7853;52.186;5.948;2022-12-07T04:53:35;3.19;;;1.52;;
15502;SDS011;7853;52.186;5.948;2022-12-07T04:54:34;3.11;;;1.40;;
15502;SDS011;7853;52.186;5.948;2022-12-07T04:55:34;3.71;;;1.60;;
15502;SDS011;7853;52.186;5.948;2022-12-07T04:56:35;2.49;;;1.42;;
15502;SDS011;7853;52.186;5.948;2022-12-07T04:57:35;4.05;;;1.58;;
15502;SDS011;7853;52.186;5.948;2022-12-07T04:58:34;2.96;;;1.39;;
15502;SDS011;7853;52.186;5.948;2022-12-07T04:59:34;2.96;;;1.98;;
15502;SDS011;7853;52.186;5.948;2022-12-07T05:00:35;3.41;;;1.44;;
15502;SDS011;7853;52.186;5.948;2022-12-07T05:01:35;2.72;;;1.39;;
15502;SDS011;7853;52.186;5.948;2022-12-07T05:02:35;2.71;;;1.58;;
15502;SDS011;7853;52.186;5.948;2022-12-07T05:03:35;3.45;;;1.63;;
15502;SDS011;7853;52.186;5.948;2022-12-07T05:04:35;2.22;;;1.36;;
15502;SDS011;7853;52.186;5.948;2022-12-07T05:05:35;2.90;;;1.49;;
15502;SDS011;7853;52.186;5.948;2022-12-07T05:06:35;3.83;;;1.51;;
15502;SDS011;7853;52.186;5.948;2022-12-07T05:07:35;2.82;;;1.39;;
15502;SDS011;7853;52.186;5.948;2022-12-07T05:08:35;2.96;;;1.47;;
15502;SDS011;7853;52.186;5.948;2022-12-07T05:09:35;2.04;;;1.40;;
15502;SDS011;7853;52.186;5.948;2022-12-07T05:10:34;2.97;;;1.72;;
15502;SDS011;7853;52.186;5.948;2022-12-07T05:11:35;3.43;;;1.58;;
15502;SDS011;7853;52.186;5.948;2022-12-07T05:12:35;3.43;;;1.75;;
15502;SDS011;7853;52.186;5.948;2022-12-07T05:13:35;3.44;;;1.52;;
15502;SDS011;7853;52.186;5.948;2022-12-07T05:14:34;3.78;;;1.69;;
15502;SDS011;7853;52.186;5.948;2022-12-07T05:15:35;3.34;;;1.64;;
15502;SDS011;7853;52.186;5.948;2022-12-07T05:16:35;2.60;;;1.47;;
15502;SDS011;7853;52.186;5.948;2022-12-07T05:17:35;2.74;;;1.55;;
15502;SDS011;7853;52.186;5.948;2022-12-07T05:18:34;2.80;;;1.54;;
15502;SDS011;7853;52.186;5.948;2022-12-07T05:19:34;3.81;;;1.42;;
15502;SDS011;7853;52.186;5.948;2022-12-07T05:20:35;3.25;;;1.35;;
15502;SDS011;7853;52.186;5.948;2022-12-07T05:21:35;1.95;;;1.01;;
15502;SDS011;7853;52.186;5.948;2022-12-07T05:22:35;3.04;;;1.35;;
15502;SDS011;7853;52.186;5.948;2022-12-07T05:23:34;2.76;;;1.54;;
15502;SDS011;7853;52.186;5.948;2022-12-07T05:24:35;1.98;;;1.24;;
15502;SDS011;7853;52.186;5.948;2022-12-07T05:25:35;3.39;;;1.42;;
15502;SDS011;7853;52.186;5.948;2022-12-07T05:26:35;2.80;;;1.31;;
15502;SDS011;7853;52.186;5.948;2022-12-07T05:27:35;2.89;;;1.73;;
15502;SDS011;7853;52.186;5.948;2022-12-07T05:28:35;3.24;;;1.57;;
15502;SDS011;7853;52.186;5.948;2022-12-07T05:29:34;2.69;;;1.19;;
15502;SDS011;7853;52.186;5.948;2022-12-07T05:30:35;5.78;;;1.64;;
15502;SDS011;7853;52.186;5.948;2022-12-07T05:31:35;3.61;;;1.59;;
15502;SDS011;7853;52.186;5.948;2022-12-07T05:32:35;2.64;;;1.32;;
15502;SDS011;7853;52.186;5.948;2022-12-07T05:33:35;2.59;;;1.37;;
15502;SDS011;7853;52.186;5.948;2022-12-07T05:34:35;2.26;;;1.42;;
15502;SDS011;7853;52.186;5.948;2022-12-07T05:35:34;2.81;;;1.40;;
15502;SDS011;7853;52.186;5.948;2022-12-07T05:36:35;4.23;;;1.50;;
15502;SDS011;7853;52.186;5.948;2022-12-07T05:37:35;3.19;;;1.43;;
15502;SDS011;7853;52.186;5.948;2022-12-07T05:38:35;2.91;;;1.30;;
15502;SDS011;7853;52.186;5.948;2022-12-07T05:39:35;4.29;;;1.50;;
15502;SDS011;7853;52.186;5.948;2022-12-07T05:40:36;3.25;;;1.43;;
15502;SDS011;7853;52.186;5.948;2022-12-07T05:41:35;3.15;;;1.49;;
15502;SDS011;7853;52.186;5.948;2022-12-07T05:42:35;3.71;;;1.35;;
15502;SDS011;7853;52.186;5.948;2022-12-07T05:43:35;3.30;;;1.34;;
15502;SDS011;7853;52.186;5.948;2022-12-07T05:44:35;4.20;;;1.59;;
15502;SDS011;7853;52.186;5.948;2022-12-07T05:45:35;3.10;;;1.41;;
15502;SDS011;7853;52.186;5.948;2022-12-07T05:46:35;3.05;;;1.42;;
15502;SDS011;7853;52.186;5.948;2022-12-07T05:47:35;2.57;;;1.33;;
15502;SDS011;7853;52.186;5.948;2022-12-07T05:48:35;2.43;;;1.36;;
15502;SDS011;7853;52.186;5.948;2022-12-07T05:49:34;2.38;;;1.28;;
15502;SDS011;7853;52.186;5.948;2022-12-07T05:50:35;3.24;;;1.36;;
15502;SDS011;7853;52.186;5.948;2022-12-07T05:51:35;3.21;;;1.15;;
15502;SDS011;7853;52.186;5.948;2022-12-07T05:52:35;2.99;;;1.38;;
15502;SDS011;7853;52.186;5.948;2022-12-07T05:53:35;2.16;;;1.40;;
15502;SDS011;7853;52.186;5.948;2022-12-07T05:54:35;4.08;;;1.49;;
15502;SDS011;7853;52.186;5.948;2022-12-07T05:55:34;2.30;;;1.29;;
15502;SDS011;7853;52.186;5.948;2022-12-07T05:56:35;3.90;;;1.41;;
15502;SDS011;7853;52.186;5.948;2022-12-07T05:57:34;2.65;;;1.21;;
15502;SDS011;7853;52.186;5.948;2022-12-07T05:58:35;3.29;;;1.29;;
15502;SDS011;7853;52.186;5.948;2022-12-07T05:59:35;3.80;;;1.18;;
15502;SDS011;7853;52.186;5.948;2022-12-07T06:00:35;2.63;;;1.16;;
15502;SDS011;7853;52.186;5.948;2022-12-07T06:01:35;3.02;;;1.37;;
15502;SDS011;7853;52.186;5.948;2022-12-07T06:02:34;2.42;;;1.26;;
15502;SDS011;7853;52.186;5.948;2022-12-07T06:03:35;2.79;;;1.44;;
15502;SDS011;7853;52.186;5.948;2022-12-07T06:04:36;2.85;;;1.37;;
15502;SDS011;7853;52.186;5.948;2022-12-07T06:05:34;1.82;;;1.21;;
15502;SDS011;7853;52.186;5.948;2022-12-07T06:06:35;2.89;;;1.25;;